Time;durP1;ratioP1;P1;durP2;ratioP2;P2;SDS_P1;SDS_P2;PMS_P1;PMS_P2;Temp;Humidity;BMP_temperature;BMP_pressure;BME280_temperature;BME280_humidity;BME280_pressure;Samples;Min_cycle;Max_cycle;Signal;HPM_P1;HPM_P2
2022/05/22 01:17:41;;;;;;;;;;;;;;;;;;;;;
2022/05/22 05:24:01;;;;;;;;;;;;;;;;;;;;;
2022/05/22 05:53:38;;;;;;;22.85;13.05;;;;;;;11.54;91.66;101608.16;6368695;23;20025;-80
2022/05/22 06:30:47;;;;;;;17.42;11.85;;;;;;;14.00;82.22;101613.94;6577750;22;20054;-84
2022/05/22 06:34:24;;;;;;;;;;;;;;;;;;;;;
2022/05/22 06:37:34;;;;;;;15.77;11.95;;;;;;;14.11;81.22;101621.66;6276561;23;20019;-84
2022/05/22 06:43:58;;;;;;;19.23;10.63;;;;;;;14.13;78.94;101617.25;6207519;24;20120;-84
2022/05/22 06:54:59;;;;;;;18.45;11.68;;;;;;;14.14;79.75;101619.00;6150379;24;20013;-84
2022/05/22 07:01:28;;;;;;;;;;;;;;;;;;;;;
2022/05/22 07:04:53;;;;;;;;;;;;;;;;;;;;;
2022/05/22 07:15:16;;;;;;;18.20;11.27;;;;;;;14.96;75.58;101620.38;6004032;24;20481;-84
2022/05/22 07:25:23;;;;;;;13.68;9.05;;;;;;;15.19;70.77;101605.97;5948546;24;20020;-84
2022/05/22 07:28:31;;;;;;;15.32;8.23;;;;;;;15.23;69.32;101600.63;5969032;24;20028;-85
2022/05/22 07:35:40;;;;;;;;;;;;;;;;;;;;;
2022/05/22 08:03:27;;;;;;;;;;;;;;;17.36;63.09;101579.88;6476422;23;20052;-85
2022/05/22 08:10:29;;;;;;;10.95;5.30;;;;;;;17.60;60.74;101580.91;6295551;23;20022;-85
2022/05/22 08:17:27;;;;;;;9.30;3.13;;;;;;;17.91;56.98;101572.13;6124967;24;20021;-85
2022/05/22 08:21:06;;;;;;;;;;;;;;;;;;;;;
2022/05/22 08:28:14;;;;;;;;;;;;;;;;;;;;;
2022/05/22 08:53:34;;;;;;;;;;;;;;;;;;;;;
2022/05/22 09:03:24;;;;;;;;;;;;;;;;;;;;;
2022/05/22 09:06:43;;;;;;;12.98;5.40;;;;;;;20.46;46.44;101504.72;5964165;24;20090;-83
2022/05/22 09:09:48;;;;;;;14.13;5.25;;;;;;;20.45;46.68;101489.72;6067079;24;20389;-83
2022/05/22 09:13:04;;;;;;;12.30;5.10;;;;;;;20.83;47.35;101497.84;6137455;24;20085;-84
2022/05/22 09:16:15;;;;;;;9.68;4.40;;;;;;;20.94;47.44;101495.56;6136762;24;20024;-83
2022/05/22 09:23:01;;;;;;;9.23;4.50;;;;;;;20.93;44.92;101481.47;6193450;24;20130;-82
2022/05/22 09:30:32;;;;;;;12.85;5.47;;;;;;;21.34;42.33;101483.13;6175352;24;20017;-83
2022/05/22 09:33:54;;;;;;;10.95;4.88;;;;;;;20.71;44.64;101478.06;6136518;24;20096;-83
2022/05/22 10:08:40;;;;;;;7.35;4.82;;;;;;;27.09;35.78;101468.03;5302427;22;28538791;-82
2022/05/22 10:11:50;;;;;;;11.05;5.10;;;;;;;28.00;32.94;101458.72;6506217;23;20326;-83
2022/05/22 10:49:48;;;;;;;10.05;5.32;;;;;;;33.18;25.60;101418.28;6434109;23;20341;-85
2022/05/22 10:56:58;;;;;;;;;;;;;;;;;;;;;
2022/05/22 11:07:27;;;;;;;;;;;;;;;;;;;;;
2022/05/22 12:05:34;;;;;;;10.95;5.60;;;;;;;35.42;19.92;101281.25;6035498;24;20474;-87
2022/05/22 12:12:22;;;;;;;9.93;5.75;;;;;;;37.27;20.27;101270.09;6015034;24;20032;-82
2022/05/22 13:01:45;;;;;;;8.82;5.80;;;;;;;38.76;16.22;101218.25;5979132;24;20020;-86
2022/05/22 13:16:05;;;;;;;11.57;5.07;;;;;;;39.78;15.98;101184.16;6000820;24;20032;-87
2022/05/22 13:18:52;;;;;;;10.13;6.20;;;;;;;38.75;17.86;101172.97;6002864;24;20487;-85
2022/05/22 13:28:42;;;;;;;8.55;4.80;;;;;;;39.56;16.91;101169.78;6107757;24;20026;-85
2022/05/22 13:31:36;;;;;;;10.90;5.32;;;;;;;39.28;16.92;101158.91;6113079;24;20010;-86
2022/05/22 13:34:55;;;;;;;9.38;4.43;;;;;;;41.31;16.52;101153.47;6110906;24;20018;-86
2022/05/22 17:26:41;;;;;;;10.38;4.15;;;;;;;31.26;23.79;100899.47;5316889;22;28778797;-87
2022/05/22 17:30:26;;;;;;;;;;;;;;;;;;;;;
2022/05/22 17:41:02;;;;;;;;;;;;;;;;;;;;;
2022/05/22 17:43:29;;;;;;;8.65;3.80;;;;;;;27.82;30.53;100876.09;6227529;23;20102;-79
2022/05/22 17:46:00;;;;;;;;;;;;;;;28.56;26.95;100875.16;6228011;24;20102;-80
2022/05/22 17:48:35;;;;;;;8.03;2.83;;;;;;;27.08;31.56;100850.94;6228202;23;19989;-81
2022/05/22 17:51:07;;;;;;;8.48;3.83;;;;;;;26.85;30.02;100857.28;6226941;24;20244;-80
2022/05/22 17:53:42;;;;;;;7.45;3.10;;;;;;;26.54;32.39;100854.38;6229463;24;20390;-81
2022/05/22 17:56:14;;;;;;;8.35;3.75;;;;;;;26.82;32.55;100854.88;6227638;23;20068;-81
2022/05/22 17:58:46;;;;;;;;;;;;;;;27.43;29.18;100857.06;6228108;24;20008;-82
2022/05/22 18:01:17;;;;;;;12.00;3.20;;;;;;;26.72;32.54;100844.91;6228025;23;20017;-79
2022/05/22 18:03:49;;;;;;;7.32;2.85;;;;;;;26.67;32.77;100851.59;6227708;23;20016;-81
2022/05/22 18:06:21;;;;;;;8.57;3.35;;;;;;;26.27;31.76;100842.19;6227405;24;20087;-80
2022/05/22 18:08:52;;;;;;;6.82;2.90;;;;;;;26.25;32.04;100840.63;6230732;24;20020;-82
2022/05/22 18:17:07;;;;;;;10.63;3.35;;;;;;;25.87;34.08;100841.75;6509252;22;19907;-80
2022/05/22 18:19:39;;;;;;;8.25;3.72;;;;;;;25.54;34.24;100854.00;6565917;22;20011;-82
2022/05/22 18:22:25;;;;;;;;;;;;;;;26.20;32.14;100841.81;6534964;22;20007;-81
2022/05/22 18:27:51;;;;;;;9.45;3.20;;;;;;;25.10;34.58;100841.16;6562238;22;20105;-80
2022/05/22 18:30:22;;;;;;;8.80;3.38;;;;;;;25.13;36.42;100850.72;6535229;22;20389;-83
2022/05/22 18:32:54;;;;;;;7.63;4.05;;;;;;;24.89;36.19;100853.34;6562482;22;20014;-81
2022/05/22 18:35:25;;;;;;;8.17;2.93;;;;;;;24.53;39.00;100849.69;6561250;22;20014;-81
2022/05/22 18:37:58;;;;;;;8.43;3.27;;;;;;;24.43;38.38;100837.97;6561768;22;20242;-81
2022/05/22 18:40:31;;;;;;;7.70;3.13;;;;;;;24.22;37.84;100841.16;6561732;22;20027;-80
2022/05/22 18:43:07;;;;;;;5.95;2.60;;;;;;;23.96;37.54;100843.81;6561567;22;20106;-81
2022/05/22 18:45:46;;;;;;;10.75;3.20;;;;;;;23.88;39.59;100842.63;6562194;22;20083;-82
2022/05/22 18:48:23;;;;;;;7.32;3.05;;;;;;;23.57;39.59;100842.00;6562455;22;20003;-82
2022/05/22 18:50:56;;;;;;;7.03;3.30;;;;;;;23.63;40.12;100838.94;6534256;22;20007;-81
2022/05/22 18:53:28;;;;;;;7.22;2.97;;;;;;;23.48;41.05;100841.66;6562377;22;20024;-81
2022/05/22 18:56:03;;;;;;;9.75;3.42;;;;;;;23.24;40.90;100836.13;6557018;22;20003;-82
2022/05/22 18:58:35;;;;;;;8.65;3.17;;;;;;;23.35;41.17;100843.44;6558594;22;20031;-82
2022/05/22 19:01:09;;;;;;;5.50;3.03;;;;;;;;;;6560250;22;20046;-81
2022/05/22 19:03:41;;;;;;;11.65;4.25;;;;;;;23.12;42.00;100835.13;6559701;22;20003;-80
2022/05/22 19:06:13;;;;;;;6.20;3.05;;;;;;;23.12;41.45;100837.81;6561060;22;20031;-80
2022/05/22 19:08:44;;;;;;;11.93;4.97;;;;;;;23.06;40.82;100839.97;6560320;22;20022;-82
2022/05/22 19:11:16;;;;;;;10.17;3.50;;;;;;;22.70;43.93;100830.72;6559878;22;20010;-81
2022/05/22 19:13:56;;;;;;;7.53;3.53;;;;;;;22.69;42.62;100829.88;6559994;22;20026;-82
2022/05/22 19:16:27;;;;;;;7.97;3.85;;;;;;;22.44;43.49;100835.00;6560270;22;20038;-81
2022/05/22 19:19:03;;;;;;;7.37;3.33;;;;;;;22.33;43.58;100828.56;6559353;22;20007;-81
2022/05/22 19:21:35;;;;;;;7.57;3.70;;;;;;;22.24;44.90;100825.59;6560310;22;20011;-79
2022/05/22 19:24:07;;;;;;;8.40;3.30;;;;;;;22.05;44.35;100826.69;6561222;22;20336;-81
2022/05/22 19:26:42;;;;;;;8.70;3.20;;;;;;;22.06;45.12;100823.09;6532724;22;20019;-82
2022/05/22 19:29:19;;;;;;;9.07;3.75;;;;;;;21.76;45.64;100826.63;6559488;22;20086;-79
2022/05/22 19:31:54;;;;;;;9.88;4.20;;;;;;;21.85;44.93;100827.91;6559484;22;20309;-79
2022/05/22 19:34:28;;;;;;;9.43;3.65;;;;;;;21.85;45.32;100825.25;6559379;22;20000;-81
2022/05/22 19:37:00;;;;;;;9.80;3.63;;;;;;;21.80;45.14;100824.66;6561922;22;20074;-80
2022/05/22 19:39:31;;;;;;;7.83;3.70;;;;;;;21.79;45.89;100812.34;6560088;22;20026;-80
2022/05/22 19:45:00;;;;;;;6.90;4.10;;;;;;;21.36;47.07;100820.13;6559910;22;20042;-82
2022/05/22 19:47:33;;;;;;;7.85;3.38;;;;;;;21.24;47.53;100814.59;6561248;22;20003;-81
2022/05/22 19:50:06;;;;;;;10.10;3.83;;;;;;;21.26;47.88;100817.16;6562093;22;20003;-83
2022/05/22 19:52:37;;;;;;;;;;;;;;;21.65;44.51;100815.81;6561790;22;20014;-81
2022/05/22 20:00:49;;;;;;;13.40;4.38;;;;;;;21.15;47.85;100798.34;6561672;22;20007;-80
2022/05/22 20:03:21;;;;;;;10.52;4.85;;;;;;;21.00;48.79;100792.97;6561211;22;20013;-79
2022/05/22 20:05:55;;;;;;;13.30;5.70;;;;;;;21.10;48.90;100791.50;6562091;22;20070;-81
2022/05/22 20:08:34;;;;;;;10.35;5.10;;;;;;;20.88;48.98;100796.31;6563336;22;20007;-80
2022/05/22 20:11:08;;;;;;;12.48;5.65;;;;;;;20.80;49.20;100801.19;6562911;22;20003;-81
2022/05/22 20:13:41;;;;;;;10.45;5.00;;;;;;;20.69;49.43;100796.50;6561926;22;20003;-80
2022/05/22 20:16:19;;;;;;;14.80;6.60;;;;;;;20.70;49.96;100788.44;6561475;22;20383;-84
2022/05/22 20:18:51;;;;;;;8.98;5.10;;;;;;;20.57;50.05;100793.50;6563660;22;20364;-82
2022/05/22 20:21:22;;;;;;;12.30;6.60;;;;;;;20.59;50.37;100790.78;6564260;22;20019;-82
2022/05/22 20:24:00;;;;;;;13.77;5.83;;;;;;;20.50;49.81;100792.16;6563778;22;20010;-82
2022/05/22 20:26:32;;;;;;;11.02;5.47;;;;;;;20.67;51.19;100785.97;6535545;22;20433;-81
2022/05/22 20:29:04;;;;;;;11.48;6.40;;;;;;;20.55;50.23;100778.66;6562468;22;20018;-83
2022/05/22 20:31:35;;;;;;;13.32;5.72;;;;;;;20.41;51.86;100784.69;6562680;22;20003;-81
2022/05/22 20:34:08;;;;;;;13.40;6.17;;;;;;;20.35;51.08;100777.09;6563161;22;20019;-82
2022/05/22 20:36:40;;;;;;;11.73;6.15;;;;;;;20.36;51.90;100773.50;6562296;22;20367;-82
2022/05/22 20:39:11;;;;;;;12.30;5.97;;;;;;;20.21;51.31;100775.19;6535167;22;20023;-82
2022/05/22 20:41:45;;;;;;;16.37;6.97;;;;;;;20.32;51.47;100775.47;6535334;22;20245;-81
2022/05/22 20:44:27;;;;;;;13.20;6.60;;;;;;;20.34;50.91;100773.59;6534169;22;20045;-81
2022/05/22 20:47:01;;;;;;;11.48;5.63;;;;;;;20.31;51.78;100767.63;6534435;22;20004;-82
2022/05/22 20:49:35;;;;;;;10.82;5.95;;;;;;;20.24;51.50;100764.44;6561909;22;20003;-82
2022/05/22 20:52:06;;;;;;;11.98;6.00;;;;;;;20.07;51.64;100754.75;6534318;22;19999;-81
2022/05/22 20:54:39;;;;;;;14.50;5.97;;;;;;;20.07;51.27;100757.41;6562123;22;20443;-80
2022/05/22 20:57:12;;;;;;;11.55;6.20;;;;;;;20.26;50.85;100748.50;6534191;22;20439;-80
2022/05/22 20:59:44;;;;;;;11.82;5.47;;;;;;;20.09;51.57;100752.88;6560766;22;20007;-81
2022/05/22 21:02:18;;;;;;;14.20;6.45;;;;;;;19.92;51.72;100748.50;6561341;22;20007;-82
2022/05/22 21:04:49;;;;;;;11.95;5.18;;;;;;;19.80;52.39;100746.47;6561855;22;20004;-81
2022/05/22 21:07:26;;;;;;;14.97;5.97;;;;;;;19.81;52.59;100749.03;6534191;22;20018;-82
2022/05/22 21:09:58;;;;;;;12.82;6.22;;;;;;;19.72;53.39;100741.53;6534454;22;20086;-80
2022/05/22 21:12:29;;;;;;;13.38;6.50;;;;;;;19.85;52.06;100745.31;6562256;22;20031;-80
2022/05/22 21:15:08;;;;;;;11.67;5.57;;;;;;;19.64;52.83;100752.53;6534968;22;20091;-81
2022/05/22 21:17:42;;;;;;;9.23;6.00;;;;;;;19.67;52.53;100751.50;6561628;22;20003;-82
2022/05/22 21:20:23;;;;;;;11.50;6.03;;;;;;;19.65;53.26;100748.94;6534508;22;20003;-82
2022/05/22 21:22:54;;;;;;;10.93;5.57;;;;;;;19.64;53.66;100734.03;6533435;22;20003;-81
2022/05/22 21:28:32;;;;;;;13.07;6.18;;;;;;;19.74;53.10;100744.09;6560988;22;20035;-81
2022/05/22 21:31:07;;;;;;;12.65;5.97;;;;;;;19.45;53.35;100738.56;6561917;22;20734;-82
2022/05/22 21:33:38;;;;;;;14.10;6.28;;;;;;;19.51;53.91;100727.63;6560968;22;19999;-82
2022/05/22 21:36:10;;;;;;;9.73;5.40;;;;;;;19.59;53.10;100729.91;6561843;22;20014;-81
2022/05/22 21:38:42;;;;;;;13.30;6.27;;;;;;;19.33;53.78;100726.78;6534252;22;20007;-82
2022/05/22 21:41:14;;;;;;;13.43;6.72;;;;;;;19.29;53.79;100722.59;6562410;22;20010;-82
2022/05/22 21:43:47;;;;;;;14.02;5.72;;;;;;;19.29;54.25;100712.03;6561820;22;20060;-81
2022/05/22 21:46:19;;;;;;;;;;;;;;;19.56;52.26;100708.91;6562284;22;20468;-80
2022/05/22 21:48:50;;;;;;;13.53;6.50;;;;;;;19.17;54.18;100713.47;6533429;22;19918;-80
2022/05/22 21:51:22;;;;;;;10.83;5.67;;;;;;;19.41;54.12;100710.53;6561778;22;20401;-81
2022/05/22 21:53:53;;;;;;;12.63;6.13;;;;;;;19.20;54.00;100709.84;6560623;22;20061;-81
2022/05/22 21:56:24;;;;;;;14.07;6.47;;;;;;;19.17;54.12;100708.19;6563019;22;20003;-81
2022/05/22 21:58:56;;;;;;;10.37;5.30;;;;;;;18.97;54.29;100708.34;6563388;22;20056;-81
2022/05/22 22:01:28;;;;;;;12.27;6.43;;;;;;;19.05;54.84;100711.47;6563518;22;20014;-79
2022/05/22 22:03:59;;;;;;;11.38;6.40;;;;;;;19.00;55.78;100718.75;6563228;22;20413;-81
2022/05/22 22:06:31;;;;;;;14.83;6.07;;;;;;;19.19;55.05;100710.78;6563828;22;20008;-80
2022/05/22 22:09:05;;;;;;;10.90;6.10;;;;;;;18.99;56.00;100712.63;6570246;22;19999;-80
2022/05/22 22:11:38;;;;;;;10.23;5.28;;;;;;;18.87;55.92;100708.78;6568623;22;20583;-80
2022/05/22 22:14:10;;;;;;;10.70;5.70;;;;;;;18.99;55.69;100712.63;6562107;22;20022;-80
2022/05/22 22:16:43;;;;;;;11.80;5.95;;;;;;;18.77;56.00;100696.91;6562642;22;20413;-82
2022/05/22 22:19:54;;;;;;;9.23;5.75;;;;;;;18.82;55.43;100702.84;6494926;23;20592;-81
2022/05/22 22:23:10;;;;;;;10.57;5.88;;;;;;;18.86;55.53;100693.03;6309569;23;20123;-82
2022/05/22 22:26:27;;;;;;;13.70;6.55;;;;;;;18.87;55.43;100682.38;6271779;23;20101;-81
2022/05/22 22:29:11;;;;;;;8.52;5.13;;;;;;;18.74;56.04;100668.03;6222185;24;20486;-81
2022/05/22 22:31:53;;;;;;;8.55;5.18;;;;;;;18.81;56.57;100676.53;6221591;23;20783;-80
2022/05/22 22:34:31;;;;;;;11.00;5.65;;;;;;;18.88;55.93;100670.88;6221283;24;20471;-82
2022/05/22 22:37:22;;;;;;;9.90;5.95;;;;;;;18.78;56.50;100666.94;6221657;24;20482;-81
2022/05/22 22:40:01;;;;;;;10.90;5.80;;;;;;;18.57;56.84;100661.78;6219031;24;20027;-81
2022/05/22 22:42:35;;;;;;;10.77;5.82;;;;;;;18.80;57.18;100662.44;6223155;24;20008;-80
2022/05/22 22:45:32;;;;;;;9.20;5.60;;;;;;;18.62;56.20;100658.06;6206298;24;20012;-81
2022/05/22 22:48:07;;;;;;;9.38;5.00;;;;;;;18.46;57.75;100664.06;6223104;24;20437;-81
2022/05/22 22:50:39;;;;;;;15.18;5.60;;;;;;;18.38;57.37;100669.72;6257883;23;20063;-81
2022/05/22 22:53:20;;;;;;;12.55;7.20;;;;;;;18.53;57.29;100669.91;6280356;23;20014;-81
2022/05/22 22:58:50;;;;;;;11.07;5.93;;;;;;;18.66;57.50;100651.69;6299952;23;20260;-81
2022/05/22 23:01:21;;;;;;;12.63;5.88;;;;;;;18.68;57.47;100653.34;6431563;23;20140;-81
2022/05/22 23:03:56;;;;;;;11.53;6.17;;;;;;;18.50;57.59;100652.47;6435727;22;20019;-81
2022/05/22 23:06:38;;;;;;;12.15;5.82;;;;;;;18.54;58.06;100653.16;6528490;22;20046;-82
2022/05/22 23:09:12;;;;;;;9.50;5.85;;;;;;;18.30;58.29;100644.63;6535333;22;20050;-81
2022/05/22 23:12:20;;;;;;;14.10;6.32;;;;;;;18.45;58.11;100624.56;6534293;22;20003;-81
2022/05/22 23:15:03;;;;;;;10.23;5.30;;;;;;;18.54;58.02;100622.31;6346886;23;20014;-80
2022/05/22 23:17:43;;;;;;;10.80;6.28;;;;;;;18.38;58.94;100630.13;6370681;23;20010;-81
2022/05/22 23:20:16;;;;;;;12.30;5.72;;;;;;;18.17;58.91;100618.81;6345716;23;20100;-81
2022/05/22 23:23:08;;;;;;;10.98;5.65;;;;;;;18.37;57.85;100623.16;6345693;23;20576;-81
2022/05/22 23:26:03;;;;;;;11.30;5.97;;;;;;;18.25;58.53;100634.28;6338693;23;20027;-81
2022/05/22 23:28:49;;;;;;;11.18;5.68;;;;;;;18.30;59.10;100619.09;6339681;23;20019;-81
2022/05/22 23:34:15;;;;;;;13.68;5.30;;;;;;;18.18;58.44;100591.50;6339931;23;20463;-80
2022/05/22 23:37:03;;;;;;;13.10;6.37;;;;;;;18.21;59.20;100591.38;6340134;23;20018;-80
2022/05/22 23:39:57;;;;;;;13.88;6.65;;;;;;;18.25;58.90;100585.94;6315506;23;20063;-81
2022/05/22 23:46:51;;;;;;;;;;;;;;;;;;;;;
2022/05/22 23:49:45;;;;;;;10.60;5.78;;;;;;;17.94;59.86;100553.97;6283526;23;20125;-80
2022/05/22 23:53:11;;;;;;;13.18;5.60;;;;;;;17.93;59.32;100544.34;6343801;23;20017;-81
